Time;durP1;ratioP1;P1;durP2;ratioP2;P2;SDS_P1;SDS_P2;PMS_P1;PMS_P2;Temp;Humidity;BMP_temperature;BMP_pressure;BME280_temperature;BME280_humidity;BME280_pressure;Samples;Min_cycle;Max_cycle;Signal;HPM_P1;HPM_P2
2022/05/16 00:00:10;;;;;;;5.22;3.20;;;;;;;;;;5004904;28;20057;-68
2022/05/16 00:02:35;;;;;;;6.50;3.60;;;;;;;;;;5001947;28;20046;-68
2022/05/16 00:05:01;;;;;;;8.90;3.67;;;;;;;;;;5008558;28;20083;-68
2022/05/16 00:07:26;;;;;;;6.55;3.17;;;;;;;;;;5006457;28;20642;-68
2022/05/16 00:09:51;;;;;;;7.07;3.53;;;;;;;;;;4992732;28;20633;-68
2022/05/16 00:12:17;;;;;;;9.43;3.47;;;;;;;;;;5007935;28;20400;-69
2022/05/16 00:14:44;;;;;;;7.18;3.33;;;;;;;;;;5007476;28;20069;-68
2022/05/16 00:17:10;;;;;;;8.55;3.55;;;;;;;;;;5007045;28;20030;-68
2022/05/16 00:19:35;;;;;;;6.05;3.47;;;;;;;;;;5008248;28;20096;-68
2022/05/16 00:22:00;;;;;;;6.82;3.30;;;;;;;;;;5007284;28;20034;-68
2022/05/16 00:24:28;;;;;;;9.45;3.30;;;;;;;;;;5005823;28;20053;-68
2022/05/16 00:26:54;;;;;;;8.98;3.45;;;;;;;;;;5002584;28;20033;-68
2022/05/16 00:29:20;;;;;;;7.25;3.38;;;;;;;;;;5003245;28;20467;-68
2022/05/16 00:31:45;;;;;;;5.82;2.95;;;;;;;;;;5001333;28;20491;-68
2022/05/16 00:34:11;;;;;;;5.22;3.72;;;;;;;;;;5007432;28;20056;-68
2022/05/16 00:36:36;;;;;;;18.40;3.60;;;;;;;;;;5007376;28;20539;-68
2022/05/16 00:39:02;;;;;;;3.80;3.15;;;;;;;;;;5005787;28;20112;-67
2022/05/16 00:41:27;;;;;;;5.82;3.80;;;;;;;;;;5006935;28;20117;-68
2022/05/16 00:43:58;;;;;;;10.73;3.67;;;;;;;;;;5008283;28;20037;-68
2022/05/16 00:46:29;;;;;;;4.90;3.20;;;;;;;;;;5006190;28;20040;-68
2022/05/16 00:48:56;;;;;;;8.68;3.53;;;;;;;;;;5003633;28;20133;-68
2022/05/16 00:51:27;;;;;;;5.97;3.65;;;;;;;;;;5023028;28;20055;-68
2022/05/16 00:53:56;;;;;;;6.68;3.63;;;;;;;;;;5007968;28;20121;-68
2022/05/16 00:56:24;;;;;;;5.35;3.28;;;;;;;;;;5003812;28;20033;-68
2022/05/16 00:58:50;;;;;;;6.07;3.55;;;;;;;;;;4998214;28;20038;-68
2022/05/16 01:06:46;;;;;;;8.07;3.25;;;;;;;;;;5001608;28;20040;-68
2022/05/16 01:09:11;;;;;;;6.88;3.55;;;;;;;;;;5007250;28;20140;-68
2022/05/16 01:11:38;;;;;;;6.38;3.40;;;;;;;;;;5005366;28;20169;-69
2022/05/16 01:14:04;;;;;;;5.53;3.05;;;;;;;;;;5004236;28;20030;-68
2022/05/16 01:16:29;;;;;;;6.22;3.28;;;;;;;;;;5006305;28;20617;-68
2022/05/16 01:18:54;;;;;;;8.38;4.07;;;;;;;;;;5006568;28;20046;-68
2022/05/16 01:21:37;;;;;;;6.28;3.30;;;;;;;;;;5006519;28;20430;-68
2022/05/16 01:24:14;;;;;;;7.90;3.35;;;;;;;;;;5007097;28;20484;-68
2022/05/16 01:26:41;;;;;;;5.75;3.35;;;;;;;;;;5002975;28;20095;-69
2022/05/16 01:29:07;;;;;;;7.10;3.28;;;;;;;;;;5003947;28;20046;-68
2022/05/16 01:31:33;;;;;;;6.03;3.10;;;;;;;;;;5006830;28;20042;-68
2022/05/16 01:33:59;;;;;;;4.43;3.40;;;;;;;;;;5005432;28;20572;-68
2022/05/16 01:36:24;;;;;;;7.68;3.08;;;;;;;;;;5006962;28;20049;-68
2022/05/16 01:38:51;;;;;;;2.97;2.65;;;;;;;;;;5006142;28;20030;-68
2022/05/16 01:41:19;;;;;;;6.20;2.70;;;;;;;;;;5000796;28;20029;-68
2022/05/16 01:43:48;;;;;;;12.68;3.15;;;;;;;;;;5007265;28;20030;-68
2022/05/16 01:46:19;;;;;;;4.13;2.90;;;;;;;;;;5006576;28;20041;-68
2022/05/16 01:48:45;;;;;;;8.48;2.85;;;;;;;;;;5006936;28;20469;-68
2022/05/16 01:51:11;;;;;;;4.60;2.53;;;;;;;;;;5006793;28;20065;-68
2022/05/16 01:53:38;;;;;;;7.28;2.90;;;;;;;;;;5011333;28;20034;-68
2022/05/16 01:56:04;;;;;;;5.60;2.70;;;;;;;;;;5005591;28;20588;-68
2022/05/16 01:58:29;;;;;;;6.93;2.85;;;;;;;;;;5006604;28;20030;-68
2022/05/16 02:00:55;;;;;;;5.97;2.88;;;;;;;;;;5004249;28;20456;-68
2022/05/16 02:03:21;;;;;;;5.53;2.70;;;;;;;;;;5006432;28;20030;-68
2022/05/16 02:05:46;;;;;;;3.40;2.83;;;;;;;;;;5005912;28;20049;-68
2022/05/16 02:08:13;;;;;;;4.38;2.70;;;;;;;;;;5006461;28;20523;-68
2022/05/16 02:10:39;;;;;;;4.28;2.60;;;;;;;;;;5005881;28;20483;-68
2022/05/16 02:13:05;;;;;;;4.22;2.50;;;;;;;;;;5004913;28;20580;-68
2022/05/16 02:15:33;;;;;;;6.43;3.15;;;;;;;;;;5003735;28;20046;-68
2022/05/16 02:17:59;;;;;;;3.95;2.40;;;;;;;;;;5003371;28;20046;-68
2022/05/16 02:20:26;;;;;;;6.28;2.63;;;;;;;;;;5006015;28;20065;-68
2022/05/16 02:25:38;;;;;;;4.53;2.60;;;;;;;;;;4997281;28;20477;-68
2022/05/16 02:28:09;;;;;;;5.47;2.88;;;;;;;;;;5005649;28;20459;-68
2022/05/16 02:30:35;;;;;;;3.55;2.70;;;;;;;;;;5005871;28;20038;-68
2022/05/16 02:33:00;;;;;;;4.95;2.80;;;;;;;;;;5006110;28;20049;-68
2022/05/16 02:35:26;;;;;;;5.80;2.58;;;;;;;;;;5003822;28;20034;-68
2022/05/16 02:37:51;;;;;;;4.85;2.80;;;;;;;;;;5005931;28;20114;-68
2022/05/16 02:40:16;;;;;;;4.20;2.67;;;;;;;;;;5003853;28;20042;-68
2022/05/16 02:42:42;;;;;;;8.73;3.00;;;;;;;;;;5006039;28;20721;-68
2022/05/16 02:45:08;;;;;;;8.40;2.90;;;;;;;;;;5004671;28;20037;-69
2022/05/16 02:47:35;;;;;;;11.07;3.10;;;;;;;;;;4993368;28;20027;-70
2022/05/16 02:50:00;;;;;;;8.95;2.88;;;;;;;;;;5003294;28;20026;-68
2022/05/16 02:52:26;;;;;;;5.22;2.80;;;;;;;;;;5005542;28;20030;-68
2022/05/16 02:54:52;;;;;;;4.80;3.00;;;;;;;;;;5004977;28;20045;-68
2022/05/16 02:57:17;;;;;;;9.23;2.85;;;;;;;;;;5015836;28;20045;-68
2022/05/16 02:59:43;;;;;;;10.95;2.92;;;;;;;;;;5003786;28;20041;-70
2022/05/16 03:02:10;;;;;;;5.28;3.47;;;;;;;;;;5004440;28;20503;-70
2022/05/16 03:04:36;;;;;;;6.22;3.00;;;;;;;;;;5006111;28;20026;-67
2022/05/16 03:07:02;;;;;;;6.97;3.05;;;;;;;;;;5003426;28;20030;-67
2022/05/16 03:09:28;;;;;;;4.93;2.63;;;;;;;;;;5008153;28;20061;-67
2022/05/16 03:11:54;;;;;;;4.50;2.92;;;;;;;;;;5005243;28;20045;-67
2022/05/16 03:14:20;;;;;;;4.32;2.50;;;;;;;;;;5009108;28;20117;-68
2022/05/16 03:16:46;;;;;;;7.97;2.83;;;;;;;;;;5024324;28;20022;-68
2022/05/16 03:19:12;;;;;;;4.72;2.60;;;;;;;;;;5009275;28;20571;-70
2022/05/16 03:21:37;;;;;;;8.63;2.80;;;;;;;;;;5008735;28;20077;-70
2022/05/16 03:24:03;;;;;;;6.65;2.95;;;;;;;;;;5007024;28;20084;-71
2022/05/16 03:26:28;;;;;;;3.95;2.90;;;;;;;;;;5008429;28;20120;-69
2022/05/16 03:28:54;;;;;;;5.53;2.72;;;;;;;;;;5009169;28;20050;-70
2022/05/16 03:31:19;;;;;;;5.47;3.03;;;;;;;;;;5009024;28;20042;-70
2022/05/16 03:33:45;;;;;;;8.52;2.88;;;;;;;;;;5008674;28;20041;-70
2022/05/16 03:36:11;;;;;;;5.15;2.63;;;;;;;;;;5008605;28;20038;-70
2022/05/16 03:41:21;;;;;;;7.10;3.25;;;;;;;;;;5002513;28;20659;-70
2022/05/16 03:43:47;;;;;;;4.43;2.78;;;;;;;;;;5009165;28;20014;-70
2022/05/16 03:46:13;;;;;;;3.97;2.50;;;;;;;;;;5005643;28;20522;-70
2022/05/16 03:48:39;;;;;;;6.80;2.63;;;;;;;;;;5008623;28;20038;-70
2022/05/16 03:51:06;;;;;;;5.65;3.00;;;;;;;;;;5008028;28;20529;-70
2022/05/16 03:53:32;;;;;;;6.82;2.70;;;;;;;;;;5008398;28;20559;-70
2022/05/16 03:55:58;;;;;;;6.40;2.90;;;;;;;;;;5006196;28;20032;-70
2022/05/16 03:58:23;;;;;;;7.85;2.90;;;;;;;;;;5008588;28;20038;-70
2022/05/16 04:00:50;;;;;;;9.70;3.03;;;;;;;;;;5008039;28;20061;-71
2022/05/16 04:03:15;;;;;;;9.68;3.17;;;;;;;;;;5002044;28;20038;-71
2022/05/16 04:05:41;;;;;;;6.43;2.90;;;;;;;;;;5007823;28;20148;-68
2022/05/16 04:08:06;;;;;;;5.85;3.00;;;;;;;;;;5007515;28;20026;-67
2022/05/16 04:10:32;;;;;;;4.05;2.70;;;;;;;;;;5008476;28;20454;-67
2022/05/16 04:12:57;;;;;;;6.85;3.10;;;;;;;;;;5020659;28;20119;-68
2022/05/16 04:15:23;;;;;;;5.50;3.13;;;;;;;;;;5008034;28;20038;-68
2022/05/16 04:17:50;;;;;;;6.80;2.90;;;;;;;;;;5003907;28;20754;-67
2022/05/16 04:20:17;;;;;;;3.92;2.80;;;;;;;;;;5006559;28;20030;-68
2022/05/16 04:22:43;;;;;;;4.90;2.80;;;;;;;;;;5008302;28;20403;-68
2022/05/16 04:25:12;;;;;;;6.25;2.63;;;;;;;;;;5007543;28;20026;-68
2022/05/16 04:27:38;;;;;;;5.55;2.70;;;;;;;;;;5005724;28;20726;-68
2022/05/16 04:30:04;;;;;;;6.68;2.90;;;;;;;;;;5005209;28;20038;-68
2022/05/16 04:32:29;;;;;;;3.35;2.47;;;;;;;;;;5004003;28;20079;-68
2022/05/16 04:34:54;;;;;;;4.55;2.63;;;;;;;;;;5005590;28;20029;-71
2022/05/16 04:37:20;;;;;;;5.40;2.60;;;;;;;;;;5007494;28;20042;-68
2022/05/16 04:39:45;;;;;;;8.15;3.47;;;;;;;;;;5007831;28;20483;-68
2022/05/16 04:44:54;;;;;;;5.07;3.05;;;;;;;;;;5007098;28;20048;-68
2022/05/16 04:47:20;;;;;;;4.93;2.50;;;;;;;;;;5004869;28;20864;-68
2022/05/16 04:49:45;;;;;;;6.22;2.60;;;;;;;;;;5008240;28;20030;-68
2022/05/16 04:52:11;;;;;;;9.60;3.30;;;;;;;;;;5007356;28;20034;-70
2022/05/16 04:54:40;;;;;;;4.35;2.85;;;;;;;;;;5022364;28;20058;-68
2022/05/16 04:57:06;;;;;;;4.63;2.80;;;;;;;;;;5007361;28;20045;-70
2022/05/16 04:59:32;;;;;;;5.25;3.03;;;;;;;;;;5006517;28;20034;-70
2022/05/16 05:01:58;;;;;;;7.22;3.03;;;;;;;;;;5005552;28;20033;-70
2022/05/16 05:04:24;;;;;;;6.22;2.80;;;;;;;;;;5006761;28;20041;-70
2022/05/16 05:06:50;;;;;;;7.47;3.22;;;;;;;;;;5006847;28;20034;-70
2022/05/16 05:09:15;;;;;;;8.57;2.83;;;;;;;;;;5006744;28;20042;-70
2022/05/16 05:14:34;;;;;;;5.90;2.90;;;;;;;;;;5007454;28;20048;-70
2022/05/16 05:17:05;;;;;;;6.80;2.88;;;;;;;;;;5022221;28;20036;-70
2022/05/16 05:19:32;;;;;;;4.20;3.08;;;;;;;;;;5004483;28;20519;-70
2022/05/16 05:21:58;;;;;;;7.30;3.30;;;;;;;;;;5006965;28;20038;-70
2022/05/16 05:24:24;;;;;;;7.32;3.28;;;;;;;;;;5000030;28;20041;-70
2022/05/16 05:26:49;;;;;;;4.93;3.00;;;;;;;;;;5020249;28;20065;-69
2022/05/16 05:29:16;;;;;;;5.40;2.83;;;;;;;;;;5006825;28;20044;-70
2022/05/16 05:31:43;;;;;;;6.40;3.30;;;;;;;;;;5005774;28;20033;-70
2022/05/16 05:34:09;;;;;;;6.47;3.03;;;;;;;;;;5001400;28;20037;-70
2022/05/16 05:36:35;;;;;;;7.40;3.40;;;;;;;;;;5001991;28;20072;-70
2022/05/16 05:39:01;;;;;;;3.83;2.65;;;;;;;;;;5004015;28;20104;-70
2022/05/16 05:41:27;;;;;;;6.20;2.78;;;;;;;;;;4998911;28;20736;-70
2022/05/16 05:43:53;;;;;;;5.50;2.72;;;;;;;;;;5002988;28;20033;-70
2022/05/16 05:46:19;;;;;;;7.07;2.97;;;;;;;;;;5004386;28;20557;-70
2022/05/16 05:48:45;;;;;;;5.47;2.60;;;;;;;;;;5005997;28;20037;-70
2022/05/16 05:51:11;;;;;;;5.28;3.25;;;;;;;;;;5000396;28;20097;-70
2022/05/16 05:53:37;;;;;;;10.23;2.83;;;;;;;;;;4994730;28;20042;-70
2022/05/16 05:56:04;;;;;;;6.97;2.67;;;;;;;;;;5005660;28;20096;-67
2022/05/16 05:58:32;;;;;;;4.03;2.63;;;;;;;;;;5004588;28;20045;-67
2022/05/16 06:00:58;;;;;;;4.22;2.92;;;;;;;;;;5005432;28;20054;-70
2022/05/16 06:03:23;;;;;;;4.82;2.80;;;;;;;;;;5004356;28;20454;-70
2022/05/16 06:05:49;;;;;;;6.55;2.83;;;;;;;;;;5005820;28;20042;-71
2022/05/16 06:08:14;;;;;;;12.07;2.80;;;;;;;;;;5003650;28;20575;-70
2022/05/16 06:10:40;;;;;;;6.15;3.28;;;;;;;;;;5001649;28;20029;-70
2022/05/16 06:13:05;;;;;;;7.00;3.10;;;;;;;;;;5001131;28;20532;-70
2022/05/16 06:15:31;;;;;;;5.43;2.95;;;;;;;;;;4998516;28;20172;-67
2022/05/16 06:17:56;;;;;;;5.72;3.13;;;;;;;;;;5004175;28;20034;-70
2022/05/16 06:20:22;;;;;;;10.88;3.17;;;;;;;;;;5005456;28;20359;-71
2022/05/16 06:22:47;;;;;;;6.22;2.83;;;;;;;;;;5003682;28;20069;-70
2022/05/16 06:25:33;;;;;;;7.50;3.40;;;;;;;;;;4999072;28;20084;-70
2022/05/16 06:28:09;;;;;;;6.45;3.30;;;;;;;;;;5002537;28;20054;-70
2022/05/16 06:30:37;;;;;;;8.88;3.40;;;;;;;;;;5005103;28;20049;-70
2022/05/16 06:33:04;;;;;;;5.80;2.92;;;;;;;;;;5005182;28;20042;-70
2022/05/16 06:35:30;;;;;;;15.32;3.53;;;;;;;;;;5004995;28;20052;-70
2022/05/16 06:37:55;;;;;;;9.00;3.30;;;;;;;;;;5000643;28;20022;-70
2022/05/16 06:40:21;;;;;;;6.85;3.80;;;;;;;;;;4999334;28;20037;-70
2022/05/16 06:42:47;;;;;;;7.75;3.63;;;;;;;;;;5005979;28;20056;-70
2022/05/16 06:45:14;;;;;;;18.00;4.20;;;;;;;;;;5008940;28;20133;-70
2022/05/16 06:47:39;;;;;;;13.23;3.70;;;;;;;;;;5009122;28;20026;-70
2022/05/16 06:50:05;;;;;;;17.67;3.85;;;;;;;;;;5008747;28;20136;-70
2022/05/16 06:52:30;;;;;;;11.13;4.40;;;;;;;;;;5009450;28;20018;-70
2022/05/16 06:54:56;;;;;;;8.10;3.83;;;;;;;;;;5005564;28;20046;-70
2022/05/16 06:57:21;;;;;;;13.90;3.83;;;;;;;;;;5003211;28;20046;-70
2022/05/16 06:59:46;;;;;;;18.33;4.13;;;;;;;;;;5004801;28;20041;-70
2022/05/16 07:02:12;;;;;;;7.45;3.97;;;;;;;;;;4996752;28;20021;-70
2022/05/16 07:04:39;;;;;;;12.50;3.58;;;;;;;;;;5006867;28;20034;-67
2022/05/16 07:07:08;;;;;;;9.20;4.40;;;;;;;;;;5005820;28;20061;-68
2022/05/16 07:09:34;;;;;;;5.13;3.67;;;;;;;;;;5006142;28;20034;-68
2022/05/16 07:12:00;;;;;;;7.88;3.65;;;;;;;;;;5008584;28;20056;-67
2022/05/16 07:14:25;;;;;;;6.50;3.85;;;;;;;;;;5004522;28;20648;-68
2022/05/16 07:16:51;;;;;;;7.25;4.40;;;;;;;;;;5009428;28;20438;-67
2022/05/16 07:19:17;;;;;;;6.32;3.60;;;;;;;;;;5006883;28;20034;-67
2022/05/16 07:21:42;;;;;;;6.55;3.88;;;;;;;;;;5019504;28;20045;-68
2022/05/16 07:24:08;;;;;;;5.60;4.00;;;;;;;;;;5002663;28;20045;-68
2022/05/16 07:29:18;;;;;;;16.25;4.60;;;;;;;;;;4999747;28;20768;-68
2022/05/16 07:31:44;;;;;;;12.40;5.18;;;;;;;;;;5005941;28;20025;-68
2022/05/16 07:34:10;;;;;;;7.80;4.60;;;;;;;;;;5006093;28;20120;-68
2022/05/16 07:36:35;;;;;;;8.10;5.07;;;;;;;;;;5008192;28;20117;-68
2022/05/16 07:39:01;;;;;;;6.85;4.38;;;;;;;;;;5004240;28;20046;-68
2022/05/16 07:41:28;;;;;;;8.50;4.88;;;;;;;;;;5008714;28;20041;-68
2022/05/16 07:43:53;;;;;;;10.68;5.30;;;;;;;;;;5024165;28;20034;-68
2022/05/16 07:46:19;;;;;;;8.23;4.90;;;;;;;;;;5003401;28;20123;-68
2022/05/16 07:48:44;;;;;;;8.60;5.00;;;;;;;;;;5008665;28;20173;-68
2022/05/16 07:51:09;;;;;;;10.27;5.50;;;;;;;;;;5008049;28;20541;-67
2022/05/16 07:53:35;;;;;;;8.80;5.18;;;;;;;;;;5008025;28;20046;-68
2022/05/16 07:56:00;;;;;;;11.57;5.88;;;;;;;;;;5006704;28;20484;-68
2022/05/16 07:58:26;;;;;;;25.80;6.93;;;;;;;;;;5008375;28;20038;-68
2022/05/16 08:00:52;;;;;;;13.50;6.38;;;;;;;;;;4996263;28;20439;-68
2022/05/16 08:03:20;;;;;;;15.10;6.43;;;;;;;;;;4996765;28;20192;-68
2022/05/16 08:05:46;;;;;;;44.10;8.32;;;;;;;;;;5000008;28;20050;-68
2022/05/16 08:10:58;;;;;;;37.45;8.75;;;;;;;;;;5000764;28;20044;-68
2022/05/16 08:13:24;;;;;;;10.88;6.70;;;;;;;;;;5006934;28;20040;-68
2022/05/16 08:15:49;;;;;;;211.70;22.42;;;;;;;;;;5002990;28;20042;-68
2022/05/16 08:18:15;;;;;;;196.02;18.27;;;;;;;;;;5002131;28;20038;-68
2022/05/16 08:20:43;;;;;;;64.50;10.23;;;;;;;;;;5000210;28;20042;-68
2022/05/16 08:23:13;;;;;;;9.63;6.68;;;;;;;;;;5002456;28;20026;-68
2022/05/16 08:25:38;;;;;;;13.52;7.30;;;;;;;;;;5002620;28;20065;-68
2022/05/16 08:28:04;;;;;;;244.88;21.70;;;;;;;;;;5002461;28;20077;-68
2022/05/16 08:30:29;;;;;;;44.25;8.80;;;;;;;;;;5003715;28;20096;-68
2022/05/16 08:32:59;;;;;;;22.85;8.45;;;;;;;;;;5001213;28;20624;-68
2022/05/16 08:35:25;;;;;;;14.07;7.40;;;;;;;;;;5003659;28;20054;-68
2022/05/16 08:40:57;;;;;;;21.65;7.80;;;;;;;;;;5003167;28;20040;-68
2022/05/16 08:43:25;;;;;;;25.75;7.53;;;;;;;;;;5002324;28;20058;-68
2022/05/16 08:46:00;;;;;;;16.45;7.47;;;;;;;;;;5004456;28;20524;-68
2022/05/16 08:48:33;;;;;;;238.20;21.73;;;;;;;;;;5004284;28;20097;-68
2022/05/16 08:51:23;;;;;;;13.80;7.90;;;;;;;;;;5005440;28;20045;-68
2022/05/16 08:53:48;;;;;;;12.50;7.43;;;;;;;;;;5004426;28;20100;-68
2022/05/16 08:56:18;;;;;;;13.63;6.93;;;;;;;;;;5006552;28;20029;-68
2022/05/16 08:58:56;;;;;;;10.88;7.13;;;;;;;;;;5003652;28;20026;-68
2022/05/16 09:01:38;;;;;;;15.35;7.47;;;;;;;;;;5001623;28;20045;-68
2022/05/16 09:04:09;;;;;;;27.70;8.68;;;;;;;;;;5001338;28;20559;-68
2022/05/16 09:06:57;;;;;;;37.15;9.65;;;;;;;;;;4999029;28;20084;-68
2022/05/16 09:09:27;;;;;;;29.38;8.93;;;;;;;;;;5000313;28;20053;-68
2022/05/16 09:12:11;;;;;;;12.25;7.70;;;;;;;;;;4996985;28;20042;-69
2022/05/16 09:14:42;;;;;;;18.67;7.68;;;;;;;;;;5002651;28;20049;-68
2022/05/16 09:17:24;;;;;;;11.90;7.18;;;;;;;;;;5001038;28;20033;-68
2022/05/16 09:19:58;;;;;;;20.75;7.22;;;;;;;;;;4997378;28;20061;-69
2022/05/16 09:22:39;;;;;;;9.40;6.60;;;;;;;;;;4994489;28;20050;-68
2022/05/16 09:25:16;;;;;;;42.42;8.82;;;;;;;;;;4997280;28;20052;-68
2022/05/16 09:30:29;;;;;;;114.25;14.90;;;;;;;;;;5003597;28;20095;-68
2022/05/16 09:33:02;;;;;;;22.02;7.63;;;;;;;;;;5017846;28;20049;-68
2022/05/16 09:35:51;;;;;;;46.97;10.90;;;;;;;;;;5001857;28;20038;-68
2022/05/16 09:38:18;;;;;;;36.65;7.32;;;;;;;;;;4999719;28;20038;-68
2022/05/16 09:40:59;;;;;;;23.27;8.25;;;;;;;;;;5000121;28;20041;-69
2022/05/16 09:43:26;;;;;;;34.33;7.85;;;;;;;;;;5000685;28;20140;-68
2022/05/16 09:46:01;;;;;;;69.63;9.48;;;;;;;;;;4999051;28;20092;-68
2022/05/16 09:48:26;;;;;;;18.27;6.57;;;;;;;;;;4999872;28;20417;-68
2022/05/16 09:51:05;;;;;;;18.30;5.45;;;;;;;;;;5002325;28;20049;-68
2022/05/16 09:53:44;;;;;;;66.65;9.23;;;;;;;;;;5002865;28;20049;-68
2022/05/16 09:56:18;;;;;;;21.67;5.53;;;;;;;;;;5015418;28;20099;-68
2022/05/16 09:58:54;;;;;;;9.38;4.85;;;;;;;;;;5002360;28;20458;-68
2022/05/16 10:01:40;;;;;;;10.10;5.05;;;;;;;;;;4996199;28;20064;-69
2022/05/16 10:04:15;;;;;;;17.40;5.95;;;;;;;;;;4993521;28;20035;-69
2022/05/16 10:06:44;;;;;;;9.20;5.43;;;;;;;;;;4998271;28;20034;-68
2022/05/16 10:09:15;;;;;;;12.40;5.53;;;;;;;;;;5000472;28;20519;-68
2022/05/16 10:11:45;;;;;;;19.20;6.05;;;;;;;;;;5000240;28;20109;-69
2022/05/16 10:14:11;;;;;;;11.82;6.05;;;;;;;;;;5000169;28;20034;-69
2022/05/16 10:16:41;;;;;;;13.63;5.80;;;;;;;;;;4999289;28;20022;-69
2022/05/16 10:19:12;;;;;;;12.75;6.07;;;;;;;;;;5006349;28;20072;-68
2022/05/16 10:21:48;;;;;;;13.18;6.90;;;;;;;;;;5000097;28;20042;-68
2022/05/16 10:24:13;;;;;;;15.65;7.75;;;;;;;;;;5005164;28;20038;-69
2022/05/16 10:26:42;;;;;;;15.07;7.47;;;;;;;;;;4999684;28;20578;-69
2022/05/16 10:29:12;;;;;;;18.77;7.55;;;;;;;;;;5007715;28;20456;-68
2022/05/16 10:35:07;;;;;;;14.35;5.97;;;;;;;;;;5004283;28;20037;-68
2022/05/16 10:37:36;;;;;;;16.88;5.80;;;;;;;;;;5003804;28;20193;-68
2022/05/16 10:40:19;;;;;;;12.20;4.93;;;;;;;;;;5008502;28;20042;-68
2022/05/16 10:42:49;;;;;;;;;;;;;;;;;;5006994;28;20046;-68
2022/05/16 10:45:22;;;;;;;8.52;4.35;;;;;;;;;;5006603;28;19917;-69
2022/05/16 10:48:00;;;;;;;7.45;4.45;;;;;;;;;;5007455;28;20041;-69
2022/05/16 10:50:26;;;;;;;20.85;5.32;;;;;;;;;;5003243;28;20042;-68
2022/05/16 10:53:19;;;;;;;7.93;4.13;;;;;;;;;;5003808;28;20087;-68
2022/05/16 10:56:00;;;;;;;10.80;4.40;;;;;;;;;;5000031;28;20733;-69
2022/05/16 10:58:44;;;;;;;9.48;3.97;;;;;;;;;;5004211;28;20042;-69
2022/05/16 11:01:16;;;;;;;8.15;4.03;;;;;;;;;;5002216;28;20045;-68
2022/05/16 11:03:41;;;;;;;10.90;4.28;;;;;;;;;;5004947;28;20030;-69
2022/05/16 11:06:22;;;;;;;14.82;4.25;;;;;;;;;;5003331;28;20053;-69
2022/05/16 11:09:28;;;;;;;12.35;3.90;;;;;;;;;;5002142;28;20683;-69
2022/05/16 11:12:02;;;;;;;31.23;5.70;;;;;;;;;;5002922;28;20038;-68
2022/05/16 11:14:40;;;;;;;33.08;6.07;;;;;;;;;;5001679;28;20042;-69
2022/05/16 11:17:25;;;;;;;62.83;6.97;;;;;;;;;;5001660;28;20033;-69
2022/05/16 11:19:54;;;;;;;84.80;10.00;;;;;;;;;;5004146;28;20022;-69
2022/05/16 11:23:02;;;;;;;28.48;4.75;;;;;;;;;;5004143;28;20427;-69
2022/05/16 11:26:03;;;;;;;11.15;4.05;;;;;;;;;;5003499;28;20034;-68
2022/05/16 11:28:32;;;;;;;23.67;4.28;;;;;;;;;;5008145;28;20050;-68
2022/05/16 11:31:02;;;;;;;42.10;5.75;;;;;;;;;;5007157;28;20045;-68
2022/05/16 11:33:46;;;;;;;37.55;4.60;;;;;;;;;;5008489;28;20042;-69
2022/05/16 11:36:16;;;;;;;21.50;4.47;;;;;;;;;;5003509;28;20030;-69
2022/05/16 11:39:18;;;;;;;61.95;6.50;;;;;;;;;;5003881;28;20042;-68
2022/05/16 11:42:02;;;;;;;30.52;4.40;;;;;;;;;;5001705;28;20486;-68
2022/05/16 11:44:55;;;;;;;39.58;5.10;;;;;;;;;;5005056;28;20117;-69
2022/05/16 11:47:29;;;;;;;5.55;2.72;;;;;;;;;;5000622;28;20018;-69
2022/05/16 11:50:38;;;;;;;4.50;2.75;;;;;;;;;;5006051;28;20095;-68
2022/05/16 11:53:34;;;;;;;23.10;3.92;;;;;;;;;;5000403;28;20046;-68
2022/05/16 12:01:37;;;;;;;164.07;15.13;;;;;;;;;;5006306;28;20076;-68
2022/05/16 12:04:13;;;;;;;137.35;10.38;;;;;;;;;;5008145;28;20046;-68
2022/05/16 12:06:43;;;;;;;55.97;7.30;;;;;;;;;;5020863;28;20034;-69
2022/05/16 12:09:24;;;;;;;6.38;2.55;;;;;;;;;;5004813;28;20045;-68
2022/05/16 12:11:57;;;;;;;13.48;2.50;;;;;;;;;;5001386;28;20045;-69
2022/05/16 12:14:37;;;;;;;13.43;3.45;;;;;;;;;;5001713;28;20029;-68
2022/05/16 12:17:08;;;;;;;11.77;2.45;;;;;;;;;;5000291;28;20116;-68
2022/05/16 12:19:39;;;;;;;11.13;2.92;;;;;;;;;;5003044;28;20134;-69
2022/05/16 12:22:06;;;;;;;4.80;2.47;;;;;;;;;;5002939;28;20092;-68
2022/05/16 12:24:41;;;;;;;4.80;2.20;;;;;;;;;;4993239;28;20080;-68
2022/05/16 12:27:29;;;;;;;8.93;2.70;;;;;;;;;;5000749;28;20531;-68
2022/05/16 12:30:01;;;;;;;4.22;2.20;;;;;;;;;;5000517;28;20045;-69
2022/05/16 12:32:29;;;;;;;7.57;2.22;;;;;;;;;;4997712;28;20072;-68
2022/05/16 12:35:00;;;;;;;5.82;2.33;;;;;;;;;;4996360;28;20088;-69
2022/05/16 12:37:26;;;;;;;4.75;2.40;;;;;;;;;;4998256;28;20073;-68
2022/05/16 12:39:55;;;;;;;3.30;2.40;;;;;;;;;;4999340;28;20072;-69
2022/05/16 12:43:19;;;;;;;40.05;6.88;;;;;;;;;;5000363;28;20124;-68
2022/05/16 12:46:22;;;;;;;15.88;4.97;;;;;;;;;;4975353;28;20056;-68
2022/05/16 12:49:15;;;;;;;8.02;3.80;;;;;;;;;;4997913;28;20555;-69
2022/05/16 12:51:52;;;;;;;4.13;2.25;;;;;;;;;;4998339;28;20046;-69
2022/05/16 12:54:30;;;;;;;6.50;2.50;;;;;;;;;;4979015;28;20034;-68
2022/05/16 12:57:05;;;;;;;5.07;2.13;;;;;;;;;;4996847;28;20043;-69
2022/05/16 12:59:47;;;;;;;5.10;2.10;;;;;;;;;;4986598;28;20044;-68
2022/05/16 13:02:30;;;;;;;4.18;2.28;;;;;;;;;;5001217;28;21013;-69
2022/05/16 13:05:07;;;;;;;8.43;2.08;;;;;;;;;;5001291;28;20069;-71
2022/05/16 13:08:07;;;;;;;9.98;2.47;;;;;;;;;;5000331;28;20069;-71
2022/05/16 13:10:50;;;;;;;5.43;2.28;;;;;;;;;;5004193;28;20073;-71
2022/05/16 13:14:07;;;;;;;5.07;2.53;;;;;;;;;;5000240;28;20099;-71
2022/05/16 13:16:40;;;;;;;5.25;2.65;;;;;;;;;;5012337;28;20061;-71
2022/05/16 13:19:15;;;;;;;6.07;2.20;;;;;;;;;;5004829;28;20036;-71
2022/05/16 13:21:53;;;;;;;3.42;1.90;;;;;;;;;;5004396;28;20507;-69
2022/05/16 13:24:20;;;;;;;5.07;2.20;;;;;;;;;;5000279;28;20038;-68
2022/05/16 13:29:34;;;;;;;6.10;2.00;;;;;;;;;;4999770;28;20498;-68
2022/05/16 13:32:13;;;;;;;5.43;2.15;;;;;;;;;;4999003;28;20033;-69
2022/05/16 13:34:41;;;;;;;6.35;2.30;;;;;;;;;;4999843;28;20050;-69
2022/05/16 13:37:09;;;;;;;7.15;2.28;;;;;;;;;;5000772;28;20225;-68
2022/05/16 13:39:38;;;;;;;6.30;2.30;;;;;;;;;;4998707;28;20061;-69
2022/05/16 13:42:04;;;;;;;9.32;2.50;;;;;;;;;;5001449;28;20061;-69
2022/05/16 13:44:57;;;;;;;4.78;2.30;;;;;;;;;;5000756;28;20038;-68
2022/05/16 13:47:23;;;;;;;6.20;2.67;;;;;;;;;;5000146;28;20061;-69
2022/05/16 13:49:49;;;;;;;7.07;2.20;;;;;;;;;;5001611;28;20030;-69
2022/05/16 13:52:24;;;;;;;5.03;1.98;;;;;;;;;;5001911;28;20061;-68
2022/05/16 13:54:51;;;;;;;6.57;1.88;;;;;;;;;;4997951;28;20042;-69
2022/05/16 13:57:22;;;;;;;7.60;2.20;;;;;;;;;;5001039;28;20038;-69
2022/05/16 13:59:50;;;;;;;4.38;1.77;;;;;;;;;;5011944;28;20073;-68
2022/05/16 14:02:25;;;;;;;7.68;1.90;;;;;;;;;;5001779;28;20037;-69
2022/05/16 14:04:52;;;;;;;10.93;2.63;;;;;;;;;;5003031;28;20080;-69
2022/05/16 14:07:20;;;;;;;8.57;1.83;;;;;;;;;;5001076;28;20385;-69
2022/05/16 14:09:56;;;;;;;3.42;1.63;;;;;;;;;;5001423;28;20072;-69
2022/05/16 14:12:46;;;;;;;5.60;2.40;;;;;;;;;;5000951;28;20064;-69
2022/05/16 14:15:26;;;;;;;5.28;1.80;;;;;;;;;;5000350;28;20038;-69
2022/05/16 14:18:10;;;;;;;3.72;1.75;;;;;;;;;;5000022;28;20042;-70
2022/05/16 14:20:40;;;;;;;4.30;1.85;;;;;;;;;;5001019;28;20034;-69
2022/05/16 14:23:36;;;;;;;4.10;1.70;;;;;;;;;;5002671;28;20022;-70
2022/05/16 14:26:18;;;;;;;4.70;1.88;;;;;;;;;;5000754;28;20053;-70
2022/05/16 14:28:47;;;;;;;4.22;2.08;;;;;;;;;;5001591;28;20601;-69
2022/05/16 14:31:28;;;;;;;7.28;1.88;;;;;;;;;;5005302;28;20033;-69
2022/05/16 14:34:14;;;;;;;5.75;1.90;;;;;;;;;;4997839;28;20586;-69
2022/05/16 14:36:41;;;;;;;5.25;1.83;;;;;;;;;;4987806;28;20054;-69
2022/05/16 14:39:24;;;;;;;3.97;1.58;;;;;;;;;;4998384;28;20030;-69
2022/05/16 14:41:53;;;;;;;4.15;1.50;;;;;;;;;;5000713;28;20573;-69
2022/05/16 14:45:07;;;;;;;6.40;1.77;;;;;;;;;;5000739;28;20707;-69
2022/05/16 14:47:41;;;;;;;4.00;1.60;;;;;;;;;;4999322;28;20057;-69
2022/05/16 14:50:24;;;;;;;3.33;1.48;;;;;;;;;;5015844;28;20075;-69
2022/05/16 14:53:00;;;;;;;7.00;1.60;;;;;;;;;;4995078;28;20478;-70
2022/05/16 14:55:47;;;;;;;4.95;1.40;;;;;;;;;;5001625;28;20030;-69
2022/05/16 14:58:14;;;;;;;6.55;1.40;;;;;;;;;;4997549;28;20088;-69
2022/05/16 15:06:09;;;;;;;5.18;1.50;;;;;;;;;;4995359;28;20049;-69
2022/05/16 15:08:38;;;;;;;4.20;1.23;;;;;;;;;;5007787;28;20050;-69
2022/05/16 15:11:04;;;;;;;3.45;1.40;;;;;;;;;;5008170;28;20034;-70
2022/05/16 15:13:30;;;;;;;4.40;1.50;;;;;;;;;;5022844;28;20041;-69
2022/05/16 15:15:56;;;;;;;4.07;1.60;;;;;;;;;;5019504;28;20045;-69
2022/05/16 15:18:22;;;;;;;4.90;1.60;;;;;;;;;;5020401;28;20036;-70
2022/05/16 15:20:48;;;;;;;4.03;1.33;;;;;;;;;;5002791;28;20124;-70
2022/05/16 15:23:17;;;;;;;4.18;1.60;;;;;;;;;;5006445;28;20033;-69
2022/05/16 15:25:43;;;;;;;3.70;1.70;;;;;;;;;;5000890;28;20026;-69
2022/05/16 15:28:09;;;;;;;10.63;1.52;;;;;;;;;;4993928;28;20064;-70
2022/05/16 15:30:36;;;;;;;3.13;1.45;;;;;;;;;;5009126;28;20411;-69
2022/05/16 15:33:01;;;;;;;2.80;1.38;;;;;;;;;;5008502;28;20050;-70
2022/05/16 15:35:27;;;;;;;4.95;1.25;;;;;;;;;;4998606;28;22961;-69
2022/05/16 15:37:53;;;;;;;10.43;1.52;;;;;;;;;;4999696;28;20029;-69
2022/05/16 15:40:18;;;;;;;4.00;1.55;;;;;;;;;;5005208;28;20050;-69
2022/05/16 15:42:44;;;;;;;4.03;1.60;;;;;;;;;;5005539;28;20503;-69